createdAt,value
2018-07-01T00:02:16.681Z,0.90
2018-07-01T00:04:46.893Z,1.10
2018-07-01T00:07:17.125Z,1.17
2018-07-01T00:09:47.738Z,1.07
2018-07-01T00:12:17.957Z,1.30
2018-07-01T00:14:48.219Z,1.40
2018-07-01T00:17:18.446Z,1.50
2018-07-01T00:19:48.646Z,1.40
2018-07-01T00:22:19.015Z,1.20
2018-07-01T00:24:49.233Z,1.27
2018-07-01T00:27:19.456Z,1.37
2018-07-01T00:29:49.693Z,1.40
2018-07-01T00:32:19.911Z,1.40
2018-07-01T00:34:50.113Z,1.57
2018-07-01T00:37:20.410Z,1.25
2018-07-01T00:39:50.624Z,1.40
2018-07-01T00:42:20.921Z,1.40
2018-07-01T00:44:51.141Z,1.33
2018-07-01T00:47:21.368Z,1.33
2018-07-01T00:49:51.659Z,1.30
2018-07-01T00:52:21.894Z,1.60
2018-07-01T00:54:52.370Z,1.20
2018-07-01T00:57:22.560Z,1.03
2018-07-01T00:59:52.760Z,1.63
2018-07-01T01:02:22.965Z,1.00
2018-07-01T01:04:53.178Z,1.20
2018-07-01T01:07:23.238Z,1.30
2018-07-01T01:09:53.645Z,1.33
2018-07-01T01:12:23.975Z,1.10
2018-07-01T01:14:54.230Z,1.30
2018-07-01T01:17:24.743Z,1.02
2018-07-01T01:19:54.992Z,1.27
2018-07-01T01:22:25.202Z,1.40
2018-07-01T01:24:55.640Z,1.40
2018-07-01T01:27:25.850Z,1.17
2018-07-01T01:29:56.033Z,1.40
2018-07-01T01:32:26.297Z,1.27
2018-07-01T01:34:56.727Z,1.30
2018-07-01T01:37:26.923Z,1.30
2018-07-01T01:39:57.759Z,1.23
2018-07-01T01:42:38.628Z,1.47
2018-07-01T01:45:14.093Z,1.07
2018-07-01T01:47:53.989Z,1.23
2018-07-01T01:50:30.078Z,1.17
2018-07-01T01:54:07.435Z,1.00
2018-07-01T01:56:44.286Z,1.05
2018-07-01T01:59:22.113Z,1.10
2018-07-01T02:02:29.588Z,1.10
2018-07-01T02:05:07.286Z,1.13
2018-07-01T02:07:44.633Z,1.00
2018-07-01T02:10:14.870Z,1.00
2018-07-01T02:12:45.149Z,0.90
2018-07-01T02:15:18.937Z,1.20
2018-07-01T02:17:50.809Z,0.90
2018-07-01T02:20:23.473Z,1.10
2018-07-01T02:23:02.596Z,1.10
2018-07-01T02:25:34.256Z,1.03
2018-07-01T02:28:04.602Z,1.20
2018-07-01T02:30:34.821Z,0.97
2018-07-01T02:33:05.051Z,1.20
2018-07-01T02:35:35.294Z,1.40
2018-07-01T02:38:05.898Z,1.23
2018-07-01T02:40:36.081Z,1.00
2018-07-01T02:43:06.562Z,1.17
2018-07-01T02:45:37.198Z,1.27
2018-07-01T02:48:08.521Z,1.07
2018-07-01T02:50:38.779Z,1.03
2018-07-01T02:53:08.984Z,1.00
2018-07-01T02:55:39.154Z,1.00
2018-07-01T02:58:09.372Z,1.00
2018-07-01T03:00:39.591Z,1.10
2018-07-01T03:03:10.010Z,0.93
2018-07-01T03:05:40.206Z,1.20
2018-07-01T03:08:10.509Z,1.10
2018-07-01T03:10:40.741Z,1.00
2018-07-01T03:13:10.944Z,1.30
2018-07-01T03:15:41.142Z,2.13
2018-07-01T03:18:11.742Z,1.10
2018-07-01T03:20:41.972Z,1.30
2018-07-01T03:23:12.163Z,1.30
2018-07-01T03:25:42.340Z,1.10
2018-07-01T03:28:12.611Z,1.00
2018-07-01T03:30:42.773Z,1.17
2018-07-01T03:33:12.993Z,1.15
2018-07-01T03:35:43.221Z,0.80
2018-07-01T03:38:13.395Z,0.85
2018-07-01T03:40:43.565Z,1.10
2018-07-01T03:43:13.924Z,1.10
2018-07-01T03:45:44.128Z,0.80
2018-07-01T03:48:14.363Z,1.00
2018-07-01T03:50:44.619Z,1.00
2018-07-01T03:53:14.821Z,1.10
2018-07-01T03:55:45.031Z,1.00
2018-07-01T03:58:15.185Z,0.93
2018-07-01T04:00:45.374Z,1.10
2018-07-01T04:03:15.564Z,1.00
2018-07-01T04:05:45.775Z,1.00
2018-07-01T04:08:16.018Z,1.13
2018-07-01T04:10:46.181Z,1.00
2018-07-01T04:13:16.400Z,1.53
2018-07-01T04:15:53.288Z,1.30
2018-07-01T04:18:23.475Z,1.00
2018-07-01T04:20:53.698Z,0.80
2018-07-01T04:23:23.893Z,0.93
2018-07-01T04:25:54.265Z,1.00
2018-07-01T04:28:24.806Z,0.83
2018-07-01T04:30:55.207Z,0.80
2018-07-01T04:33:25.430Z,0.83
2018-07-01T04:35:55.650Z,0.90
2018-07-01T04:38:25.856Z,0.80
2018-07-01T04:40:56.060Z,0.80
2018-07-01T04:43:26.220Z,0.93
2018-07-01T04:45:56.342Z,0.80
2018-07-01T04:48:26.497Z,0.90
2018-07-01T04:50:56.682Z,0.97
2018-07-01T04:53:26.868Z,1.00
2018-07-01T04:55:57.017Z,0.80
2018-07-01T04:58:27.256Z,0.67
2018-07-01T05:00:58.339Z,0.80
2018-07-01T05:03:28.555Z,0.60
2018-07-01T05:05:58.752Z,0.70
2018-07-01T05:08:29.025Z,0.60
2018-07-01T05:10:59.206Z,0.67
2018-07-01T05:13:29.502Z,0.50
2018-07-01T05:15:59.745Z,0.57
2018-07-01T05:18:30.142Z,0.70
2018-07-01T05:21:00.402Z,0.57
2018-07-01T05:23:30.721Z,0.60
2018-07-01T05:26:00.937Z,0.50
2018-07-01T05:28:31.164Z,0.50
2018-07-01T05:31:01.551Z,0.53
2018-07-01T05:33:31.712Z,0.70
2018-07-01T05:36:02.021Z,0.57
2018-07-01T05:38:32.548Z,0.60
2018-07-01T05:41:02.832Z,0.70
2018-07-01T05:43:33.093Z,0.53
2018-07-01T05:46:03.258Z,0.50
2018-07-01T05:48:33.560Z,0.60
2018-07-01T05:51:03.801Z,0.53
2018-07-01T05:53:34.109Z,0.50
2018-07-01T05:56:04.370Z,0.60
2018-07-01T05:58:34.568Z,0.50
2018-07-01T06:01:04.806Z,0.60
2018-07-01T06:03:35.000Z,0.60
2018-07-01T06:06:05.216Z,0.50
2018-07-01T06:08:35.466Z,0.70
2018-07-01T06:11:05.678Z,0.53
2018-07-01T06:13:35.904Z,0.50
2018-07-01T06:16:06.191Z,0.50
2018-07-01T06:18:36.528Z,0.50
2018-07-01T06:21:06.958Z,0.40
2018-07-01T06:23:37.214Z,0.50
2018-07-01T06:26:07.509Z,0.40
2018-07-01T06:28:37.770Z,0.50
2018-07-01T06:31:09.165Z,0.50
2018-07-01T06:33:39.538Z,0.50
2018-07-01T06:36:09.434Z,0.40
2018-07-01T06:38:39.550Z,0.40
2018-07-01T06:41:10.146Z,0.30
2018-07-01T06:43:40.363Z,0.50
2018-07-01T06:46:10.579Z,0.50
2018-07-01T06:48:40.894Z,0.50
2018-07-01T06:51:11.154Z,0.40
2018-07-01T06:53:41.393Z,0.50
2018-07-01T06:56:11.578Z,0.40
2018-07-01T06:58:41.853Z,0.60
2018-07-01T07:01:12.092Z,0.40
2018-07-01T07:03:42.778Z,0.50
2018-07-01T07:06:13.281Z,0.30
2018-07-01T07:08:43.432Z,0.40
2018-07-01T07:11:13.630Z,0.47
2018-07-01T07:13:43.908Z,0.40
2018-07-01T07:16:14.657Z,0.30
2018-07-01T07:18:44.869Z,0.50
2018-07-01T07:21:15.129Z,0.50
2018-07-01T07:23:45.376Z,0.50
2018-07-01T07:26:15.641Z,0.50
2018-07-01T07:28:46.157Z,0.50
2018-07-01T07:31:16.335Z,0.60
2018-07-01T07:33:47.033Z,0.67
2018-07-01T07:36:17.714Z,0.50
2018-07-01T07:38:48.160Z,0.60
2018-07-01T07:41:18.305Z,0.50
2018-07-01T07:43:48.465Z,0.43
2018-07-01T07:46:18.692Z,0.40
2018-07-01T07:48:49.210Z,0.50
2018-07-01T07:51:19.202Z,0.40
2018-07-01T07:53:51.654Z,0.40
2018-07-01T07:56:21.913Z,0.40
2018-07-01T07:58:52.249Z,0.60
2018-07-01T08:01:25.627Z,0.43
2018-07-01T08:03:55.769Z,0.60
2018-07-01T08:06:25.965Z,0.60
2018-07-01T08:08:56.141Z,0.40
2018-07-01T08:11:26.312Z,0.40
2018-07-01T08:13:56.628Z,0.43
2018-07-01T08:16:26.825Z,0.40
2018-07-01T08:18:57.037Z,0.30
2018-07-01T08:21:27.172Z,0.40
2018-07-01T08:23:57.345Z,0.35
2018-07-01T08:26:27.649Z,0.50
2018-07-01T08:28:57.861Z,0.50
2018-07-01T08:31:27.938Z,0.30
2018-07-01T08:33:58.097Z,0.33
2018-07-01T08:36:28.444Z,0.50
2018-07-01T08:38:58.605Z,0.40
2018-07-01T08:41:32.722Z,0.40
2018-07-01T08:44:02.897Z,0.40
2018-07-01T08:46:33.051Z,0.40
2018-07-01T08:49:03.202Z,0.30
2018-07-01T08:51:33.358Z,0.40
2018-07-01T08:54:03.518Z,0.40
2018-07-01T08:56:33.690Z,0.40
2018-07-01T08:59:03.995Z,0.40
2018-07-01T09:01:34.126Z,0.40
2018-07-01T09:04:04.277Z,0.40
2018-07-01T09:06:34.461Z,0.35
2018-07-01T09:09:06.986Z,0.30
2018-07-01T09:11:37.150Z,0.60
2018-07-01T09:14:07.300Z,0.40
2018-07-01T09:16:37.468Z,0.30
2018-07-01T09:19:07.712Z,0.40
2018-07-01T09:21:37.874Z,0.40
2018-07-01T09:24:08.161Z,0.47
2018-07-01T09:26:39.134Z,0.40
2018-07-01T09:29:09.421Z,0.40
2018-07-01T09:31:39.586Z,0.40
2018-07-01T09:34:09.735Z,0.40
2018-07-01T09:36:39.910Z,0.40
2018-07-01T09:39:10.738Z,0.40
2018-07-01T09:41:40.882Z,0.43
2018-07-01T09:44:11.039Z,0.50
2018-07-01T09:46:41.212Z,0.30
2018-07-01T09:49:11.371Z,0.40
2018-07-01T09:51:41.564Z,0.50
2018-07-01T09:54:11.854Z,0.50
2018-07-01T09:56:41.997Z,0.50
2018-07-01T09:59:12.149Z,0.40
2018-07-01T10:01:42.304Z,0.40
2018-07-01T10:04:12.446Z,0.50
2018-07-01T10:06:42.603Z,0.50
2018-07-01T10:09:12.736Z,0.50
2018-07-01T10:11:42.884Z,0.50
2018-07-01T10:14:13.015Z,0.70
2018-07-01T10:16:43.334Z,0.40
2018-07-01T10:19:14.300Z,0.50
2018-07-01T10:21:44.443Z,0.50
2018-07-01T10:24:14.658Z,0.50
2018-07-01T10:26:44.837Z,0.57
2018-07-01T10:29:15.598Z,0.40
2018-07-01T10:31:46.122Z,0.63
2018-07-01T10:34:16.654Z,0.40
2018-07-01T10:36:46.802Z,0.40
2018-07-01T10:39:18.196Z,0.50
2018-07-01T10:41:48.344Z,0.40
2018-07-01T10:46:54.505Z,0.60
2018-07-01T10:49:24.686Z,0.50
2018-07-01T10:51:54.797Z,0.50
2018-07-01T10:54:24.967Z,0.60
2018-07-01T10:59:30.428Z,0.40
2018-07-01T11:02:00.599Z,0.50
2018-07-01T11:04:30.761Z,0.50
2018-07-01T11:07:00.963Z,0.50
2018-07-01T11:09:31.085Z,0.50
2018-07-01T11:12:01.262Z,0.50
2018-07-01T11:14:31.408Z,0.50
2018-07-01T11:17:01.704Z,0.40
2018-07-01T11:19:31.831Z,0.60
2018-07-01T11:22:02.392Z,0.60
2018-07-01T11:24:32.525Z,0.43
2018-07-01T11:27:03.008Z,0.50
2018-07-01T11:29:32.877Z,0.50
2018-07-01T11:32:03.100Z,0.40
2018-07-01T11:34:33.244Z,0.80
2018-07-01T11:37:03.525Z,0.60
2018-07-01T11:39:33.662Z,0.60
2018-07-01T11:42:03.916Z,0.60
2018-07-01T11:44:34.121Z,0.60
2018-07-01T11:47:04.256Z,0.50
2018-07-01T11:49:34.442Z,0.50
2018-07-01T11:52:04.813Z,0.80
2018-07-01T11:54:34.958Z,0.60
2018-07-01T11:57:05.172Z,0.50
2018-07-01T11:59:35.299Z,0.50
2018-07-01T12:02:05.457Z,0.60
2018-07-01T12:04:35.654Z,0.80
2018-07-01T12:07:10.896Z,0.70
2018-07-01T12:09:44.853Z,0.60
2018-07-01T12:12:14.998Z,0.50
2018-07-01T12:14:45.171Z,0.50
2018-07-01T12:17:15.335Z,0.60
2018-07-01T12:19:45.481Z,0.60
2018-07-01T12:22:15.645Z,0.60
2018-07-01T12:24:45.960Z,0.70
2018-07-01T12:27:16.125Z,0.63
2018-07-01T12:29:46.291Z,0.60
2018-07-01T12:32:16.469Z,0.60
2018-07-01T12:34:47.842Z,0.50
2018-07-01T12:37:17.998Z,0.60
2018-07-01T12:39:48.137Z,0.50
2018-07-01T12:42:18.588Z,0.50
2018-07-01T12:44:48.709Z,0.63
2018-07-01T12:47:18.963Z,0.90
2018-07-01T12:49:49.109Z,1.22
2018-07-01T12:52:19.251Z,0.53
2018-07-01T12:54:49.540Z,2.03
2018-07-01T12:57:19.669Z,2.70
2018-07-01T12:59:49.802Z,1.30
2018-07-01T13:02:19.999Z,0.80
2018-07-01T13:04:50.274Z,0.50
2018-07-01T13:07:20.426Z,0.50
2018-07-01T13:09:50.595Z,0.50
2018-07-01T13:12:20.754Z,1.13
2018-07-01T13:14:50.906Z,0.50
2018-07-01T13:17:21.054Z,0.70
2018-07-01T13:19:51.224Z,0.70
2018-07-01T13:22:21.363Z,0.50
2018-07-01T13:24:51.774Z,0.60
2018-07-01T13:27:22.016Z,0.50
2018-07-01T13:29:52.169Z,0.70
2018-07-01T13:32:22.321Z,1.20
2018-07-01T13:34:52.518Z,0.60
2018-07-01T13:37:22.661Z,0.70
2018-07-01T13:39:52.813Z,0.67
2018-07-01T13:42:22.971Z,0.50
2018-07-01T13:44:53.141Z,0.60
2018-07-01T13:47:23.298Z,0.50
2018-07-01T13:49:53.474Z,0.60
2018-07-01T13:52:23.644Z,0.67
2018-07-01T13:54:53.786Z,0.67
2018-07-01T13:57:23.965Z,0.70
2018-07-01T13:59:54.104Z,0.60
2018-07-01T14:02:24.260Z,0.62
2018-07-01T14:04:54.420Z,0.63
2018-07-01T14:07:24.589Z,0.50
2018-07-01T14:09:54.745Z,0.70
2018-07-01T14:12:24.944Z,0.50
2018-07-01T14:14:55.084Z,0.53
2018-07-01T14:17:25.268Z,0.67
2018-07-01T14:19:55.415Z,0.70
2018-07-01T14:22:25.561Z,0.50
2018-07-01T14:24:55.708Z,0.60
2018-07-01T14:27:26.046Z,0.50
2018-07-01T14:29:56.204Z,0.63
2018-07-01T14:32:26.376Z,0.70
2018-07-01T14:34:56.521Z,0.60
2018-07-01T14:37:26.693Z,0.70
2018-07-01T14:39:56.849Z,0.93
2018-07-01T14:42:27.024Z,0.70
2018-07-01T14:44:57.450Z,0.63
2018-07-01T14:47:27.640Z,0.60
2018-07-01T14:49:57.860Z,0.60
2018-07-01T14:52:28.013Z,0.60
2018-07-01T14:54:58.220Z,0.60
2018-07-01T14:57:28.327Z,0.50
2018-07-01T14:59:58.925Z,0.50
2018-07-01T15:02:29.062Z,0.50
2018-07-01T15:04:59.198Z,0.50
2018-07-01T15:07:29.374Z,0.70
2018-07-01T15:10:00.384Z,0.50
2018-07-01T15:12:30.542Z,0.70
2018-07-01T15:15:00.674Z,0.60
2018-07-01T15:17:30.846Z,0.47
2018-07-01T15:20:01.000Z,0.40
2018-07-01T15:22:31.168Z,0.80
2018-07-01T15:25:01.325Z,0.60
2018-07-01T15:27:31.482Z,0.50
2018-07-01T15:30:07.757Z,0.70
2018-07-01T15:32:38.028Z,0.60
2018-07-01T15:35:08.438Z,0.50
2018-07-01T15:37:38.590Z,0.50
2018-07-01T15:40:08.888Z,0.90
2018-07-01T15:42:39.031Z,0.50
2018-07-01T15:45:09.212Z,0.60
2018-07-01T15:47:39.523Z,0.53
2018-07-01T15:50:09.704Z,0.50
2018-07-01T15:52:39.568Z,0.50
2018-07-01T15:55:09.836Z,0.40
2018-07-01T15:57:40.022Z,0.63
2018-07-01T16:00:10.129Z,0.50
2018-07-01T16:02:40.298Z,0.43
2018-07-01T16:05:10.491Z,0.60
2018-07-01T16:07:40.619Z,0.40
2018-07-01T16:10:10.981Z,0.40
2018-07-01T16:12:41.125Z,0.50
2018-07-01T16:15:12.400Z,0.40
2018-07-01T16:17:42.814Z,0.40
2018-07-01T16:20:15.572Z,0.40
2018-07-01T16:22:45.741Z,0.70
2018-07-01T16:25:21.246Z,0.63
2018-07-01T16:27:56.612Z,0.70
2018-07-01T16:30:26.676Z,0.50
2018-07-01T16:32:56.822Z,0.57
2018-07-01T16:35:27.005Z,0.37
2018-07-01T16:37:57.156Z,0.40
2018-07-01T16:40:27.341Z,0.40
2018-07-01T16:42:57.509Z,0.40
2018-07-01T16:45:27.858Z,0.40
2018-07-01T16:47:58.000Z,0.43
2018-07-01T16:50:28.138Z,0.33
2018-07-01T16:52:58.313Z,0.40
2018-07-01T16:55:28.474Z,0.50
2018-07-01T16:57:58.890Z,0.50
2018-07-01T17:00:29.029Z,0.50
2018-07-01T17:02:59.206Z,0.40
2018-07-01T17:05:29.506Z,0.40
2018-07-01T17:07:59.584Z,0.50
2018-07-01T17:10:29.742Z,0.90
2018-07-01T17:12:59.888Z,0.50
2018-07-01T17:15:30.034Z,0.50
2018-07-01T17:18:00.167Z,0.50
2018-07-01T17:20:30.322Z,0.50
2018-07-01T17:23:00.495Z,0.57
2018-07-01T17:25:30.670Z,0.50
2018-07-01T17:28:00.825Z,0.40
2018-07-01T17:30:30.974Z,0.50
2018-07-01T17:33:07.126Z,0.57
2018-07-01T17:35:37.275Z,0.50
2018-07-01T17:38:07.454Z,0.43
2018-07-01T17:40:37.692Z,0.40
2018-07-01T17:43:07.868Z,0.30
2018-07-01T17:45:37.998Z,0.50
2018-07-01T17:48:08.417Z,0.60
2018-07-01T17:50:38.561Z,0.40
2018-07-01T17:53:08.962Z,0.50
2018-07-01T17:55:39.303Z,0.60
2018-07-01T17:58:09.474Z,0.40
2018-07-01T18:00:39.658Z,0.40
2018-07-01T18:03:09.798Z,0.50
2018-07-01T18:05:39.948Z,0.50
2018-07-01T18:08:10.084Z,0.40
2018-07-01T18:10:40.285Z,0.53
2018-07-01T18:13:10.438Z,0.53
2018-07-01T18:15:40.614Z,0.50
2018-07-01T18:18:10.825Z,0.50
2018-07-01T18:20:40.965Z,0.80
2018-07-01T18:25:41.254Z,0.50
2018-07-01T18:28:26.510Z,0.70
2018-07-01T18:30:45.968Z,0.60
2018-07-01T18:33:16.265Z,0.53
2018-07-01T18:35:47.625Z,0.70
2018-07-01T18:38:17.826Z,1.45
2018-07-01T18:40:48.433Z,0.60
2018-07-01T18:43:18.152Z,0.40
2018-07-01T18:45:48.325Z,0.50
2018-07-01T18:48:18.469Z,0.50
2018-07-01T18:50:51.401Z,0.50
2018-07-01T18:53:21.649Z,0.43
2018-07-01T18:55:51.725Z,0.50
2018-07-01T18:58:21.877Z,0.30
2018-07-01T19:00:52.029Z,0.60
2018-07-01T19:03:22.228Z,0.40
2018-07-01T19:05:52.344Z,0.42
2018-07-01T19:08:22.522Z,0.50
2018-07-01T19:10:52.670Z,0.50
2018-07-01T19:13:22.820Z,0.50
2018-07-01T19:15:52.966Z,0.40
2018-07-01T19:18:23.117Z,0.50
2018-07-01T19:20:53.303Z,0.40
2018-07-01T19:23:23.528Z,0.60
2018-07-01T19:25:53.721Z,0.50
2018-07-01T19:28:23.893Z,0.53
2018-07-01T19:30:54.050Z,0.50
2018-07-01T19:33:24.179Z,0.50
2018-07-01T19:35:54.480Z,0.50
2018-07-01T19:38:24.643Z,0.40
2018-07-01T19:40:54.799Z,0.50
2018-07-01T19:43:25.139Z,0.50
2018-07-01T19:45:55.117Z,0.50
2018-07-01T19:48:25.450Z,0.50
2018-07-01T19:50:55.598Z,0.50
2018-07-01T19:53:25.749Z,0.50
2018-07-01T19:55:55.895Z,0.50
2018-07-01T19:58:26.048Z,0.60
2018-07-01T20:00:56.343Z,0.60
2018-07-01T20:03:26.467Z,0.60
2018-07-01T20:05:56.637Z,0.63
2018-07-01T20:08:26.762Z,0.70
2018-07-01T20:10:56.927Z,0.50
2018-07-01T20:13:27.122Z,0.50
2018-07-01T20:15:57.299Z,0.50
2018-07-01T20:18:27.486Z,0.60
2018-07-01T20:20:57.613Z,0.60
2018-07-01T20:23:27.769Z,0.60
2018-07-01T20:25:57.916Z,0.60
2018-07-01T20:28:28.085Z,0.60
2018-07-01T20:30:58.226Z,0.70
2018-07-01T20:33:28.380Z,0.53
2018-07-01T20:35:58.536Z,0.60
2018-07-01T20:38:28.622Z,0.50
2018-07-01T20:40:58.768Z,0.50
2018-07-01T20:43:29.146Z,0.57
2018-07-01T20:45:59.269Z,0.57
2018-07-01T20:48:29.433Z,0.70
2018-07-01T20:50:59.568Z,0.60
2018-07-01T20:53:29.951Z,0.60
2018-07-01T20:56:00.094Z,0.80
2018-07-01T20:58:30.257Z,0.70
2018-07-01T21:01:00.403Z,0.50
2018-07-01T21:03:30.578Z,0.40
2018-07-01T21:06:00.713Z,0.50
2018-07-01T21:08:30.865Z,0.50
2018-07-01T21:11:01.053Z,0.53
2018-07-01T21:13:31.451Z,0.60
2018-07-01T21:16:01.581Z,0.60
2018-07-01T21:18:31.754Z,0.50
2018-07-01T21:21:01.887Z,0.50
2018-07-01T21:23:32.047Z,0.50
2018-07-01T21:26:02.224Z,0.60
2018-07-01T21:28:32.362Z,0.60
2018-07-01T21:31:02.518Z,0.70
2018-07-01T21:33:32.689Z,0.50
2018-07-01T21:36:02.838Z,0.63
2018-07-01T21:38:32.987Z,0.70
2018-07-01T21:41:03.166Z,0.60
2018-07-01T21:43:33.273Z,0.50
2018-07-01T21:46:03.435Z,0.50
2018-07-01T21:48:33.593Z,0.70
2018-07-01T21:51:03.758Z,0.80
2018-07-01T21:53:33.882Z,0.70
2018-07-01T21:56:04.073Z,0.47
2018-07-01T21:58:34.249Z,0.60
2018-07-01T22:01:05.665Z,0.60
2018-07-01T22:03:35.856Z,0.60
2018-07-01T22:06:07.958Z,0.70
2018-07-01T22:08:38.776Z,0.60
2018-07-01T22:12:00.038Z,0.50
2018-07-01T22:14:38.093Z,0.70
2018-07-01T22:17:10.956Z,0.50
2018-07-01T22:19:41.605Z,0.70
2018-07-01T22:22:12.155Z,0.70
2018-07-01T22:24:43.690Z,0.60
2018-07-01T22:27:15.057Z,0.70
2018-07-01T22:29:46.112Z,0.70
2018-07-01T22:32:16.369Z,0.60
2018-07-01T22:34:46.613Z,0.67
2018-07-01T22:37:16.911Z,0.63
2018-07-01T22:39:47.079Z,0.47
2018-07-01T22:42:17.293Z,0.60
2018-07-01T22:44:48.914Z,0.88
2018-07-01T22:47:19.242Z,0.60
2018-07-01T22:49:49.428Z,0.70
2018-07-01T22:52:19.600Z,0.70
2018-07-01T22:54:49.805Z,0.60
2018-07-01T22:57:20.094Z,0.80
2018-07-01T22:59:50.277Z,0.60
2018-07-01T23:03:04.870Z,0.60
2018-07-01T23:05:35.058Z,0.70
2018-07-01T23:08:05.516Z,0.53
2018-07-01T23:10:35.709Z,0.60
2018-07-01T23:13:05.936Z,0.77
2018-07-01T23:15:36.117Z,0.80
2018-07-01T23:18:06.357Z,0.67
2018-07-01T23:20:40.265Z,0.85
2018-07-01T23:23:10.681Z,0.80
2018-07-01T23:25:40.893Z,0.70
2018-07-01T23:28:11.118Z,0.80
2018-07-01T23:30:41.486Z,0.97
2018-07-01T23:33:11.934Z,0.80
2018-07-01T23:35:42.122Z,0.67
2018-07-01T23:38:13.647Z,0.60
2018-07-01T23:40:43.793Z,0.80
2018-07-01T23:43:14.041Z,0.53
2018-07-01T23:45:44.376Z,0.80
2018-07-01T23:48:14.712Z,0.80
2018-07-01T23:50:45.316Z,0.60
2018-07-01T23:53:15.584Z,0.93
2018-07-01T23:55:45.826Z,0.80
2018-07-01T23:58:16.445Z,0.70
